Time;durP1;ratioP1;P1;durP2;ratioP2;P2;SDS_P1;SDS_P2;PMS_P1;PMS_P2;Temp;Humidity;BMP_temperature;BMP_pressure;BME280_temperature;BME280_humidity;BME280_pressure;Samples;Min_cycle;Max_cycle;Signal;HPM_P1;HPM_P2
2021/05/26 00:01:14;;;;;;;0.10;0.10;;;10.90;99.90;;;;;;4966409;28;20280;-80
2021/05/26 00:03:39;;;;;;;0.10;0.10;;;10.90;99.90;;;;;;4969834;28;20354;-81
2021/05/26 00:06:05;;;;;;;0.10;0.10;;;11.00;99.90;;;;;;4975641;28;20206;-80
2021/05/26 00:08:33;;;;;;;0.03;0.03;;;11.00;99.90;;;;;;4975032;28;20208;-80
2021/05/26 00:11:01;;;;;;;0.10;0.10;;;11.00;99.90;;;;;;4965648;28;20601;-82
2021/05/26 00:13:28;;;;;;;0.17;0.17;;;11.00;99.90;;;;;;4963195;28;20193;-81
2021/05/26 00:15:54;;;;;;;0.10;0.10;;;11.00;99.90;;;;;;4970011;28;20438;-80
2021/05/26 00:18:21;;;;;;;0.10;0.10;;;11.00;99.90;;;;;;4970299;28;20232;-80
2021/05/26 00:20:48;;;;;;;0.63;0.30;;;11.00;99.90;;;;;;4978647;28;20229;-81
2021/05/26 00:23:14;;;;;;;0.10;0.10;;;10.90;99.90;;;;;;4969859;28;20640;-80
2021/05/26 00:25:40;;;;;;;0.00;0.00;;;11.00;99.90;;;;;;4969623;28;20200;-81
2021/05/26 00:28:05;;;;;;;0.53;0.40;;;11.00;99.90;;;;;;4978016;28;20216;-81
2021/05/26 00:30:33;;;;;;;0.17;0.17;;;11.00;99.90;;;;;;4960940;28;20589;-81
2021/05/26 00:32:59;;;;;;;0.50;0.50;;;10.90;99.90;;;;;;4969101;28;20206;-81
2021/05/26 00:35:25;;;;;;;0.17;0.17;;;10.70;99.90;;;;;;4970480;28;20194;-81
2021/05/26 00:37:51;;;;;;;0.10;0.10;;;10.80;99.90;;;;;;4987429;28;20588;-81
2021/05/26 00:40:17;;;;;;;0.37;0.20;;;10.90;99.90;;;;;;4967288;28;20221;-81
2021/05/26 00:42:43;;;;;;;0.10;0.10;;;10.80;99.90;;;;;;4962855;28;20186;-82
2021/05/26 00:45:10;;;;;;;0.20;0.20;;;10.80;99.90;;;;;;4972087;28;20223;-81
2021/05/26 00:47:39;;;;;;;0.10;0.10;;;10.90;99.90;;;;;;4969752;28;20240;-81
2021/05/26 00:50:09;;;;;;;0.10;0.10;;;10.90;99.90;;;;;;4967117;28;20192;-81
2021/05/26 00:52:34;;;;;;;0.10;0.10;;;10.90;99.90;;;;;;4964048;28;20191;-82
2021/05/26 00:55:00;;;;;;;0.00;0.00;;;10.90;99.90;;;;;;4971413;28;20203;-81
2021/05/26 00:57:26;;;;;;;0.50;0.50;;;11.00;99.90;;;;;;4960276;28;20174;-81
2021/05/26 00:59:52;;;;;;;0.30;0.10;;;10.90;99.90;;;;;;4968494;28;20561;-81
2021/05/26 01:02:18;;;;;;;0.10;0.10;;;10.90;99.90;;;;;;4970779;28;20197;-81
2021/05/26 01:04:43;;;;;;;0.10;0.10;;;10.90;99.90;;;;;;4960712;28;20249;-82
2021/05/26 01:07:10;;;;;;;0.10;0.10;;;10.80;99.90;;;;;;4971061;28;20254;-81
2021/05/26 01:09:36;;;;;;;0.10;0.10;;;10.80;99.90;;;;;;4963069;28;20234;-81
2021/05/26 01:12:01;;;;;;;0.00;0.00;;;10.80;99.90;;;;;;4956674;28;20560;-82
2021/05/26 01:14:27;;;;;;;0.10;0.10;;;10.80;99.90;;;;;;4966273;28;20335;-82
2021/05/26 01:16:52;;;;;;;0.20;0.20;;;10.90;99.90;;;;;;4966894;28;20188;-82
2021/05/26 01:19:18;;;;;;;0.30;0.10;;;10.90;99.90;;;;;;4971118;28;20303;-82
2021/05/26 01:21:48;;;;;;;0.20;0.20;;;10.80;99.90;;;;;;4971323;28;20190;-81
2021/05/26 01:24:13;;;;;;;0.10;0.10;;;10.80;99.90;;;;;;4963844;28;20189;-81
2021/05/26 01:26:39;;;;;;;0.20;0.20;;;10.80;99.90;;;;;;4983365;28;20551;-81
2021/05/26 01:29:04;;;;;;;0.07;0.07;;;10.90;99.90;;;;;;4960961;28;20216;-81
2021/05/26 01:31:30;;;;;;;0.00;0.00;;;10.90;99.90;;;;;;4964837;28;20177;-81
2021/05/26 01:33:56;;;;;;;0.10;0.10;;;11.00;99.90;;;;;;4972127;28;20210;-81
2021/05/26 01:36:21;;;;;;;0.10;0.10;;;11.00;99.90;;;;;;4986443;28;20550;-81
2021/05/26 01:38:47;;;;;;;0.10;0.10;;;11.00;99.90;;;;;;4970781;28;20203;-81
2021/05/26 01:41:12;;;;;;;0.10;0.10;;;10.90;99.90;;;;;;4969802;28;20192;-81
2021/05/26 01:43:38;;;;;;;0.10;0.10;;;10.80;99.90;;;;;;4973108;28;20519;-81
2021/05/26 01:46:03;;;;;;;0.10;0.10;;;10.80;99.90;;;;;;4965948;28;20186;-80
2021/05/26 01:48:29;;;;;;;0.40;0.40;;;10.90;99.90;;;;;;4965163;28;20676;-81
2021/05/26 01:50:55;;;;;;;0.30;0.20;;;10.90;99.90;;;;;;4968430;28;20185;-82
2021/05/26 01:53:20;;;;;;;0.10;0.10;;;10.90;99.90;;;;;;4972309;28;20177;-82
2021/05/26 01:55:46;;;;;;;0.53;0.37;;;10.90;99.90;;;;;;4971415;28;20297;-82
2021/05/26 01:58:15;;;;;;;0.20;0.20;;;11.00;99.90;;;;;;4963672;28;20235;-81
2021/05/26 02:00:43;;;;;;;0.10;0.10;;;11.00;99.90;;;;;;4971464;28;20189;-80
2021/05/26 02:03:09;;;;;;;0.10;0.10;;;11.10;99.90;;;;;;4969663;28;20269;-82
2021/05/26 02:05:35;;;;;;;0.10;0.10;;;11.10;99.90;;;;;;4960311;28;20187;-82
2021/05/26 02:08:01;;;;;;;0.60;0.30;;;11.10;99.90;;;;;;4975500;28;20220;-81
2021/05/26 02:13:11;;;;;;;0.13;0.13;;;11.10;99.90;;;;;;4965817;28;20241;-82
2021/05/26 02:15:37;;;;;;;0.10;0.10;;;11.00;99.90;;;;;;4963216;28;20271;-81
2021/05/26 02:18:03;;;;;;;0.60;0.60;;;11.00;99.90;;;;;;4972451;28;20293;-82
2021/05/26 02:20:29;;;;;;;0.30;0.30;;;10.90;99.90;;;;;;4985280;28;20196;-84
2021/05/26 02:22:54;;;;;;;0.20;0.20;;;10.90;99.90;;;;;;4975347;28;20195;-83
2021/05/26 02:25:20;;;;;;;0.07;0.07;;;10.60;99.90;;;;;;4972748;28;20197;-84
2021/05/26 02:27:45;;;;;;;0.10;0.10;;;10.50;99.90;;;;;;4968436;28;20672;-81
2021/05/26 02:30:12;;;;;;;0.30;0.30;;;10.50;99.90;;;;;;4988209;28;20724;-81
2021/05/26 02:32:38;;;;;;;0.10;0.10;;;10.60;99.90;;;;;;4962004;28;20178;-82
2021/05/26 02:35:05;;;;;;;0.10;0.10;;;10.70;99.90;;;;;;4957720;28;20192;-81
2021/05/26 02:37:31;;;;;;;0.10;0.10;;;10.70;99.90;;;;;;4965264;28;20192;-80
2021/05/26 02:39:59;;;;;;;0.30;0.30;;;10.70;99.90;;;;;;4967337;28;20184;-81
2021/05/26 02:42:24;;;;;;;0.27;0.27;;;10.80;99.90;;;;;;4971589;28;20624;-81
2021/05/26 02:44:50;;;;;;;0.10;0.10;;;10.80;99.90;;;;;;4971446;28;20211;-81
2021/05/26 02:47:15;;;;;;;0.10;0.10;;;10.70;99.90;;;;;;4968043;28;20193;-81
2021/05/26 02:49:41;;;;;;;0.10;0.10;;;10.80;99.90;;;;;;4960693;28;20634;-83
2021/05/26 02:52:06;;;;;;;0.10;0.10;;;10.90;99.90;;;;;;4970259;28;20192;-82
2021/05/26 02:54:32;;;;;;;0.10;0.10;;;10.90;99.90;;;;;;4974575;28;20191;-81
2021/05/26 02:56:59;;;;;;;0.10;0.10;;;10.90;99.90;;;;;;4966195;28;20197;-83
2021/05/26 02:59:24;;;;;;;0.10;0.10;;;10.90;99.90;;;;;;4974258;28;20700;-82
2021/05/26 03:01:50;;;;;;;0.10;0.10;;;10.70;99.90;;;;;;4982606;28;20193;-82
2021/05/26 03:04:16;;;;;;;0.03;0.03;;;10.60;99.90;;;;;;4967547;28;20191;-82
2021/05/26 03:06:41;;;;;;;0.17;0.17;;;10.60;99.90;;;;;;4974387;28;20197;-80
2021/05/26 03:09:07;;;;;;;0.10;0.10;;;10.60;99.90;;;;;;4973318;28;20286;-82
2021/05/26 03:11:32;;;;;;;0.17;0.17;;;10.30;99.90;;;;;;4962522;28;20206;-82
2021/05/26 03:13:58;;;;;;;0.10;0.10;;;10.40;99.90;;;;;;4974055;28;20199;-82
2021/05/26 03:16:23;;;;;;;0.10;0.10;;;10.60;99.90;;;;;;4973004;28;20275;-81
2021/05/26 03:18:50;;;;;;;0.10;0.10;;;10.70;99.90;;;;;;4974374;28;20819;-81
2021/05/26 03:21:16;;;;;;;0.27;0.27;;;10.70;99.90;;;;;;4969285;28;20604;-81
2021/05/26 03:23:43;;;;;;;0.10;0.10;;;10.80;99.90;;;;;;4966741;28;20193;-81
2021/05/26 03:26:08;;;;;;;0.00;0.00;;;10.80;99.90;;;;;;4972301;28;20193;-83
2021/05/26 03:28:34;;;;;;;0.10;0.10;;;10.80;99.90;;;;;;4972731;28;20287;-81
2021/05/26 03:31:00;;;;;;;0.27;0.27;;;10.90;99.90;;;;;;4972255;28;20279;-82
2021/05/26 03:33:26;;;;;;;0.10;0.10;;;10.80;99.90;;;;;;4973658;28;20197;-82
2021/05/26 03:35:51;;;;;;;0.10;0.10;;;10.70;99.90;;;;;;4969745;28;20187;-82
2021/05/26 03:38:17;;;;;;;0.10;0.10;;;10.80;99.90;;;;;;4972947;28;20673;-83
2021/05/26 03:40:42;;;;;;;0.00;0.00;;;10.90;99.90;;;;;;4968713;28;20669;-82
2021/05/26 03:43:08;;;;;;;0.13;0.13;;;11.00;99.90;;;;;;4971960;28;20647;-82
2021/05/26 03:45:34;;;;;;;0.10;0.10;;;10.90;99.90;;;;;;4972124;28;20193;-82
2021/05/26 03:48:02;;;;;;;0.53;0.53;;;11.00;99.90;;;;;;4960879;28;20218;-81
2021/05/26 03:50:28;;;;;;;0.10;0.10;;;10.90;99.90;;;;;;4970203;28;20208;-82
2021/05/26 03:52:55;;;;;;;0.00;0.00;;;10.90;99.90;;;;;;4971698;28;20671;-82
2021/05/26 03:55:22;;;;;;;0.10;0.10;;;10.80;99.90;;;;;;4973051;28;20191;-82
2021/05/26 03:57:48;;;;;;;0.10;0.10;;;10.90;99.90;;;;;;4972922;28;20247;-82
2021/05/26 04:00:17;;;;;;;0.30;0.20;;;10.90;99.90;;;;;;4972856;28;20275;-82
2021/05/26 04:02:46;;;;;;;0.00;0.00;;;10.90;99.90;;;;;;4970476;28;20188;-82
2021/05/26 04:05:12;;;;;;;0.10;0.10;;;10.80;99.90;;;;;;4963278;28;20168;-82
2021/05/26 04:07:38;;;;;;;0.20;0.20;;;10.90;99.90;;;;;;4988267;28;20208;-82
2021/05/26 04:10:04;;;;;;;0.10;0.10;;;11.00;99.90;;;;;;4970395;28;20249;-82
2021/05/26 04:12:30;;;;;;;0.10;0.10;;;11.00;99.90;;;;;;4972056;28;20600;-82
2021/05/26 04:14:56;;;;;;;0.03;0.03;;;11.00;99.90;;;;;;4971442;28;20196;-82
2021/05/26 04:17:22;;;;;;;0.20;0.20;;;10.90;99.90;;;;;;4972075;28;20191;-82
2021/05/26 04:19:48;;;;;;;0.10;0.10;;;11.00;99.90;;;;;;4967566;28;20202;-82
2021/05/26 04:22:14;;;;;;;0.10;0.10;;;11.10;99.90;;;;;;4970737;28;20268;-83
2021/05/26 04:24:39;;;;;;;0.10;0.10;;;11.00;99.90;;;;;;4970373;28;20223;-82
2021/05/26 04:27:05;;;;;;;0.10;0.10;;;11.00;99.90;;;;;;4972453;28;20251;-82
2021/05/26 04:29:32;;;;;;;0.10;0.10;;;11.10;99.90;;;;;;4972343;28;20209;-84
2021/05/26 04:31:58;;;;;;;0.23;0.23;;;11.20;99.90;;;;;;4973442;28;20186;-85
2021/05/26 04:34:24;;;;;;;0.77;0.30;;;11.20;99.90;;;;;;4988358;28;20184;-85
2021/05/26 04:36:49;;;;;;;0.83;0.40;;;11.10;99.90;;;;;;4988417;28;20776;-85
2021/05/26 04:39:16;;;;;;;0.67;0.67;;;11.10;99.90;;;;;;4972720;28;20284;-85
2021/05/26 04:41:41;;;;;;;0.00;0.00;;;11.10;99.90;;;;;;4974258;28;20219;-84
2021/05/26 04:44:07;;;;;;;0.10;0.10;;;11.10;99.90;;;;;;4972715;28;20187;-81
2021/05/26 04:46:34;;;;;;;0.20;0.20;;;11.00;99.90;;;;;;4973377;28;20186;-81
2021/05/26 04:49:00;;;;;;;0.30;0.30;;;11.10;99.90;;;;;;4973000;28;20210;-82
2021/05/26 04:51:26;;;;;;;1.07;0.17;;;11.10;99.90;;;;;;4973255;28;20184;-81
2021/05/26 04:53:51;;;;;;;0.10;0.10;;;11.00;99.90;;;;;;4972844;28;20263;-82
2021/05/26 04:56:17;;;;;;;0.10;0.10;;;11.10;99.90;;;;;;4972305;28;20191;-81
2021/05/26 04:58:43;;;;;;;0.10;0.10;;;11.00;99.90;;;;;;4973383;28;20216;-81
2021/05/26 05:01:09;;;;;;;0.10;0.10;;;10.90;99.90;;;;;;4968983;28;20198;-81
2021/05/26 05:03:41;;;;;;;0.43;0.43;;;11.10;99.90;;;;;;4972151;28;20612;-83
2021/05/26 05:06:08;;;;;;;0.10;0.10;;;11.10;99.90;;;;;;4972752;28;20694;-85
2021/05/26 05:08:33;;;;;;;0.10;0.10;;;11.10;99.90;;;;;;4989214;28;20206;-85
2021/05/26 05:10:59;;;;;;;0.20;0.20;;;11.20;99.90;;;;;;4984477;28;20203;-82
2021/05/26 05:13:25;;;;;;;0.10;0.10;;;11.20;99.90;;;;;;4978136;28;20191;-84
2021/05/26 05:15:50;;;;;;;0.63;0.63;;;11.20;99.90;;;;;;4971621;28;20216;-82
2021/05/26 05:18:16;;;;;;;0.10;0.10;;;11.30;99.90;;;;;;4973263;28;20481;-84
2021/05/26 05:20:42;;;;;;;0.10;0.10;;;11.20;99.90;;;;;;4970260;28;20189;-85
2021/05/26 05:23:08;;;;;;;0.10;0.10;;;11.20;99.90;;;;;;4973218;28;20192;-85
2021/05/26 05:25:33;;;;;;;0.10;0.10;;;11.20;99.90;;;;;;4973475;28;20721;-85
2021/05/26 05:27:59;;;;;;;0.10;0.10;;;11.20;99.90;;;;;;4972650;28;20715;-85
2021/05/26 05:30:25;;;;;;;0.03;0.03;;;11.30;99.90;;;;;;4974081;28;20307;-85
2021/05/26 05:32:51;;;;;;;0.10;0.10;;;11.40;99.90;;;;;;4971686;28;20832;-84
2021/05/26 05:35:16;;;;;;;0.20;0.20;;;11.30;99.90;;;;;;4972055;28;20176;-84
2021/05/26 05:37:42;;;;;;;0.10;0.10;;;11.40;99.90;;;;;;4972457;28;20205;-85
2021/05/26 05:40:08;;;;;;;0.07;0.07;;;11.40;99.90;;;;;;4973701;28;20278;-85
2021/05/26 05:42:34;;;;;;;0.10;0.10;;;11.50;99.90;;;;;;4972516;28;20191;-86
2021/05/26 05:45:00;;;;;;;0.40;0.40;;;11.40;99.90;;;;;;4972547;28;20751;-86
2021/05/26 05:47:25;;;;;;;0.10;0.10;;;11.30;99.90;;;;;;4968616;28;20279;-86
2021/05/26 05:49:51;;;;;;;0.73;0.40;;;11.40;99.90;;;;;;4970892;28;20220;-84
2021/05/26 05:52:16;;;;;;;0.10;0.10;;;11.50;99.90;;;;;;4973400;28;20194;-84
2021/05/26 05:54:42;;;;;;;0.10;0.10;;;11.50;99.90;;;;;;4973869;28;20196;-85
2021/05/26 05:57:08;;;;;;;0.20;0.20;;;11.60;99.90;;;;;;4986957;28;20235;-86
2021/05/26 05:59:34;;;;;;;0.20;0.20;;;11.60;99.90;;;;;;4971777;28;20235;-85
2021/05/26 06:02:00;;;;;;;0.10;0.10;;;11.60;99.90;;;;;;4970867;28;20266;-86
2021/05/26 06:04:26;;;;;;;0.10;0.10;;;11.60;99.90;;;;;;4969534;28;20193;-87
2021/05/26 06:06:51;;;;;;;0.10;0.10;;;11.70;99.90;;;;;;4974243;28;20270;-84
2021/05/26 06:09:17;;;;;;;0.30;0.20;;;11.50;99.90;;;;;;4976463;28;20336;-84
2021/05/26 06:11:43;;;;;;;1.03;0.20;;;11.40;99.90;;;;;;4976178;28;20180;-84
2021/05/26 06:14:08;;;;;;;0.10;0.10;;;11.30;99.90;;;;;;4976601;28;20286;-85
2021/05/26 06:16:35;;;;;;;0.10;0.10;;;11.40;99.90;;;;;;4975518;28;20193;-89
2021/05/26 06:19:01;;;;;;;0.10;0.10;;;11.50;99.90;;;;;;4975427;28;20212;-86
2021/05/26 06:21:27;;;;;;;0.23;0.23;;;11.50;99.90;;;;;;4974289;28;20190;-84
2021/05/26 06:23:53;;;;;;;0.10;0.10;;;11.60;99.90;;;;;;4972368;28;20203;-86
2021/05/26 06:26:25;;;;;;;0.10;0.10;;;11.70;99.90;;;;;;4970171;28;20195;-84
2021/05/26 06:28:51;;;;;;;0.20;0.20;;;11.70;99.90;;;;;;4971905;28;20216;-83
2021/05/26 06:31:17;;;;;;;0.33;0.33;;;11.70;99.90;;;;;;4972169;28;20202;-83
2021/05/26 06:33:43;;;;;;;0.33;0.27;;;11.80;99.90;;;;;;4975257;28;20216;-83
2021/05/26 06:36:11;;;;;;;0.23;0.23;;;11.80;99.90;;;;;;4976386;28;20280;-82
2021/05/26 06:38:53;;;;;;;0.10;0.10;;;11.70;99.90;;;;;;4976834;28;20206;-81
2021/05/26 06:41:18;;;;;;;0.10;0.10;;;11.80;99.90;;;;;;4973681;28;20262;-82
2021/05/26 06:43:44;;;;;;;0.10;0.10;;;11.90;99.90;;;;;;4973726;28;20182;-83
2021/05/26 06:46:13;;;;;;;0.10;0.10;;;11.90;99.90;;;;;;4972646;28;20556;-83
2021/05/26 06:48:39;;;;;;;0.10;0.10;;;12.00;99.90;;;;;;4968958;28;20207;-82
2021/05/26 06:51:05;;;;;;;0.10;0.10;;;12.00;99.90;;;;;;4976942;28;20246;-82
2021/05/26 06:53:30;;;;;;;0.10;0.10;;;12.00;99.90;;;;;;4973912;28;20188;-80
2021/05/26 06:55:56;;;;;;;0.10;0.10;;;12.10;99.90;;;;;;4968677;28;20272;-81
2021/05/26 06:58:22;;;;;;;0.10;0.10;;;12.10;99.90;;;;;;4972740;28;20226;-79
2021/05/26 07:00:48;;;;;;;0.17;0.17;;;12.20;99.90;;;;;;4972722;28;20689;-78
2021/05/26 07:03:14;;;;;;;0.00;0.00;;;12.20;99.90;;;;;;4967388;28;20195;-81
2021/05/26 07:05:40;;;;;;;0.40;0.30;;;12.30;99.90;;;;;;4968866;28;21708;-80
2021/05/26 07:08:05;;;;;;;0.10;0.10;;;12.20;99.90;;;;;;4968382;28;20209;-83
2021/05/26 07:10:31;;;;;;;0.10;0.10;;;12.30;99.90;;;;;;4973034;28;20659;-81
2021/05/26 07:12:57;;;;;;;0.20;0.20;;;12.30;99.90;;;;;;4971311;28;20187;-81
2021/05/26 07:15:22;;;;;;;0.10;0.10;;;12.40;99.90;;;;;;4971138;28;20282;-85
2021/05/26 07:17:48;;;;;;;0.10;0.10;;;12.30;99.90;;;;;;4968958;28;20244;-81
2021/05/26 07:20:14;;;;;;;0.13;0.13;;;12.10;99.90;;;;;;4972011;28;20211;-80
2021/05/26 07:22:40;;;;;;;0.10;0.10;;;12.20;99.90;;;;;;4971235;28;20199;-81
2021/05/26 07:25:06;;;;;;;0.10;0.10;;;12.30;99.90;;;;;;4980132;28;20182;-82
2021/05/26 07:27:32;;;;;;;0.20;0.20;;;12.40;99.90;;;;;;4970918;28;20192;-80
2021/05/26 07:29:57;;;;;;;0.10;0.10;;;12.50;99.90;;;;;;4971058;28;20283;-82
2021/05/26 07:32:23;;;;;;;0.20;0.20;;;12.50;99.90;;;;;;4965855;28;20182;-83
2021/05/26 07:34:50;;;;;;;0.10;0.10;;;12.50;99.90;;;;;;4969028;28;20297;-82
2021/05/26 07:37:15;;;;;;;0.47;0.47;;;12.50;99.90;;;;;;4969910;28;20264;-82
2021/05/26 07:39:41;;;;;;;2.90;2.10;;;12.30;99.90;;;;;;4971143;28;20708;-82
2021/05/26 07:42:08;;;;;;;0.10;0.10;;;12.40;99.90;;;;;;4970629;28;20195;-80
2021/05/26 07:44:34;;;;;;;0.33;0.33;;;12.50;99.90;;;;;;4975627;28;20729;-82
2021/05/26 07:47:00;;;;;;;0.20;0.10;;;12.70;99.90;;;;;;4968480;28;20203;-82
2021/05/26 07:49:26;;;;;;;0.17;0.17;;;13.00;99.90;;;;;;4969860;28;20215;-83
2021/05/26 07:51:55;;;;;;;0.30;0.30;;;13.20;99.90;;;;;;4968317;28;20189;-82
2021/05/26 07:54:22;;;;;;;0.20;0.20;;;13.30;99.90;;;;;;4970769;28;20638;-81
2021/05/26 07:56:49;;;;;;;0.10;0.10;;;13.60;99.90;;;;;;4986147;28;20188;-83
2021/05/26 07:59:14;;;;;;;0.10;0.10;;;13.90;99.90;;;;;;4972390;28;20228;-81
2021/05/26 08:01:40;;;;;;;1.43;1.33;;;14.10;99.90;;;;;;4970726;28;20203;-81
2021/05/26 08:04:06;;;;;;;0.20;0.20;;;14.30;99.90;;;;;;4972537;28;20204;-80
2021/05/26 08:06:31;;;;;;;0.00;0.00;;;14.20;99.90;;;;;;4973622;28;20264;-82
2021/05/26 08:08:57;;;;;;;0.10;0.10;;;14.20;99.90;;;;;;4972198;28;20212;-82
2021/05/26 08:11:23;;;;;;;0.10;0.10;;;14.10;99.90;;;;;;4980592;28;20267;-81
2021/05/26 08:13:49;;;;;;;0.00;0.00;;;13.90;99.90;;;;;;4969811;28;20653;-81
2021/05/26 08:16:14;;;;;;;0.00;0.00;;;13.80;99.90;;;;;;4973990;28;20194;-83
2021/05/26 08:18:40;;;;;;;0.53;0.53;;;13.70;99.90;;;;;;4968823;28;20255;-83
2021/05/26 08:21:06;;;;;;;0.10;0.10;;;13.80;99.90;;;;;;4964687;28;20717;-82
2021/05/26 08:23:32;;;;;;;0.00;0.00;;;14.00;99.90;;;;;;4971871;28;20188;-83
2021/05/26 08:25:57;;;;;;;0.10;0.10;;;14.30;99.90;;;;;;4969817;28;20193;-78
2021/05/26 08:28:23;;;;;;;1.10;0.13;;;14.40;99.90;;;;;;4971949;28;20204;-80
2021/05/26 08:30:48;;;;;;;0.43;0.30;;;14.40;99.90;;;;;;4969647;28;20216;-80
2021/05/26 08:33:14;;;;;;;0.13;0.13;;;14.30;99.90;;;;;;4972767;28;20196;-79
2021/05/26 08:35:40;;;;;;;0.30;0.30;;;14.30;99.90;;;;;;4961135;28;20275;-80
2021/05/26 08:38:06;;;;;;;0.30;0.20;;;14.30;99.90;;;;;;4966794;28;20200;-78
2021/05/26 08:40:31;;;;;;;2.10;1.90;;;14.10;99.90;;;;;;4969016;28;20196;-77
2021/05/26 08:42:58;;;;;;;0.30;0.30;;;14.30;99.90;;;;;;4969809;28;20199;-78
2021/05/26 08:45:25;;;;;;;0.10;0.10;;;14.60;99.90;;;;;;4981484;28;20612;-78
2021/05/26 08:47:53;;;;;;;1.50;0.30;;;14.80;99.90;;;;;;4968158;28;20212;-79
2021/05/26 08:50:19;;;;;;;0.50;0.47;;;15.20;99.90;;;;;;4965994;28;21154;-79
2021/05/26 08:52:45;;;;;;;0.50;0.50;;;15.40;99.90;;;;;;4967423;28;20184;-78
2021/05/26 08:55:13;;;;;;;0.37;0.27;;;15.60;99.90;;;;;;4967644;28;20244;-79
2021/05/26 08:57:39;;;;;;;0.10;0.10;;;15.90;99.90;;;;;;4969869;28;20280;-78
2021/05/26 09:00:07;;;;;;;0.10;0.10;;;15.50;99.90;;;;;;4968795;28;20660;-79
2021/05/26 09:02:33;;;;;;;0.10;0.10;;;15.70;99.90;;;;;;4965735;28;21021;-79
2021/05/26 09:04:58;;;;;;;0.00;0.00;;;15.60;99.90;;;;;;4969357;28;20195;-78
2021/05/26 09:07:29;;;;;;;0.77;0.40;;;15.60;99.90;;;;;;4971396;28;20200;-78
2021/05/26 09:10:00;;;;;;;0.30;0.30;;;15.50;99.90;;;;;;4969711;28;20290;-79
2021/05/26 09:12:26;;;;;;;0.10;0.10;;;15.40;99.90;;;;;;4965998;28;20201;-77
2021/05/26 09:14:53;;;;;;;0.40;0.40;;;15.20;99.90;;;;;;4967815;28;20191;-78
2021/05/26 09:17:18;;;;;;;0.20;0.20;;;14.90;99.90;;;;;;4968722;28;20195;-79
2021/05/26 09:19:44;;;;;;;0.10;0.10;;;14.70;99.90;;;;;;4967936;28;20210;-81
2021/05/26 09:22:15;;;;;;;0.37;0.37;;;14.70;99.90;;;;;;4984061;28;20190;-83
2021/05/26 09:24:41;;;;;;;0.67;0.20;;;14.80;99.90;;;;;;4968512;28;20193;-78
2021/05/26 09:27:09;;;;;;;0.20;0.20;;;14.90;99.90;;;;;;4970755;28;20192;-78
2021/05/26 09:29:37;;;;;;;0.10;0.10;;;14.80;99.90;;;;;;4965826;28;20220;-78
2021/05/26 09:32:20;;;;;;;0.20;0.20;;;15.00;99.90;;;;;;4968746;28;20277;-78
2021/05/26 09:34:48;;;;;;;0.33;0.33;;;14.90;99.90;;;;;;4968961;28;20191;-77
2021/05/26 09:37:20;;;;;;;0.10;0.10;;;15.00;99.90;;;;;;4969340;28;20185;-77
2021/05/26 09:39:57;;;;;;;0.10;0.10;;;15.00;99.90;;;;;;4967019;28;20193;-78
2021/05/26 09:42:31;;;;;;;0.03;0.03;;;15.00;99.90;;;;;;4967550;28;20212;-78
2021/05/26 09:45:16;;;;;;;0.30;0.20;;;15.10;99.90;;;;;;4971637;28;20222;-77
2021/05/26 09:47:50;;;;;;;0.10;0.10;;;14.90;99.90;;;;;;4969146;28;20201;-78
2021/05/26 09:50:19;;;;;;;0.10;0.10;;;14.90;99.90;;;;;;4969756;28;20707;-79
2021/05/26 09:53:11;;;;;;;0.03;0.03;;;15.00;99.90;;;;;;4972542;28;20292;-79
2021/05/26 09:55:39;;;;;;;0.10;0.10;;;14.80;99.90;;;;;;4969728;28;20188;-78
2021/05/26 09:58:07;;;;;;;0.10;0.10;;;14.50;99.90;;;;;;4970188;28;20925;-76
2021/05/26 10:00:33;;;;;;;1.40;0.20;;;14.40;99.90;;;;;;4974192;28;20220;-78
2021/05/26 10:02:59;;;;;;;0.10;0.10;;;14.10;99.90;;;;;;4971598;28;22009;-77
2021/05/26 10:05:25;;;;;;;0.10;0.10;;;14.00;99.90;;;;;;4972687;28;20283;-76
2021/05/26 10:07:57;;;;;;;0.03;0.03;;;14.00;99.90;;;;;;4970278;28;20300;-78
2021/05/26 10:10:24;;;;;;;0.10;0.10;;;14.10;99.90;;;;;;4972888;28;20217;-79
2021/05/26 10:13:04;;;;;;;0.10;0.10;;;14.20;99.90;;;;;;4971429;28;20603;-79
2021/05/26 10:15:32;;;;;;;0.20;0.20;;;14.30;99.90;;;;;;4968578;28;20235;-79
2021/05/26 10:17:59;;;;;;;0.10;0.10;;;14.20;99.90;;;;;;4985253;28;22055;-78
2021/05/26 10:20:37;;;;;;;0.23;0.23;;;14.10;99.90;;;;;;4970036;28;20561;-78
2021/05/26 10:23:06;;;;;;;0.00;0.00;;;14.00;99.90;;;;;;4973626;28;20198;-78
2021/05/26 10:25:32;;;;;;;0.20;0.20;;;13.90;99.90;;;;;;4987937;28;20189;-78
2021/05/26 10:27:59;;;;;;;0.10;0.10;;;13.70;99.90;;;;;;4972194;28;20200;-79
2021/05/26 10:30:27;;;;;;;1.10;0.37;;;13.70;99.90;;;;;;4969967;28;20275;-79
2021/05/26 10:33:05;;;;;;;0.00;0.00;;;13.70;99.90;;;;;;4971707;28;20189;-78
2021/05/26 10:35:52;;;;;;;0.10;0.10;;;13.50;99.90;;;;;;4957903;28;20251;-79
2021/05/26 10:38:17;;;;;;;0.40;0.27;;;13.40;99.90;;;;;;4972135;28;20634;-79
2021/05/26 10:40:48;;;;;;;0.10;0.10;;;13.50;99.90;;;;;;4972807;28;20256;-78
2021/05/26 10:43:20;;;;;;;0.10;0.10;;;13.60;99.90;;;;;;4971979;28;20212;-77
2021/05/26 10:45:50;;;;;;;0.40;0.23;;;13.70;99.90;;;;;;4965218;28;20189;-77
2021/05/26 10:48:37;;;;;;;0.10;0.10;;;13.80;99.90;;;;;;4967107;28;20268;-79
2021/05/26 10:51:03;;;;;;;0.10;0.10;;;13.90;99.90;;;;;;4967477;28;20217;-79
2021/05/26 10:53:40;;;;;;;1.60;0.97;;;14.20;99.90;;;;;;4970294;28;20217;-79
2021/05/26 10:56:07;;;;;;;0.10;0.10;;;14.50;99.90;;;;;;4970960;28;20192;-79
2021/05/26 10:58:43;;;;;;;0.10;0.10;;;14.80;99.90;;;;;;4968509;28;20223;-79
2021/05/26 11:01:13;;;;;;;0.10;0.10;;;15.00;99.90;;;;;;4983693;28;20222;-78
2021/05/26 11:03:43;;;;;;;0.10;0.10;;;15.10;99.90;;;;;;4963983;28;20193;-78
2021/05/26 11:06:18;;;;;;;0.30;0.20;;;14.80;99.90;;;;;;4967851;28;20189;-78
2021/05/26 11:08:49;;;;;;;0.10;0.10;;;14.80;99.90;;;;;;4966111;28;20203;-79
2021/05/26 11:11:28;;;;;;;0.10;0.10;;;14.70;99.90;;;;;;4962350;28;20203;-79
2021/05/26 11:14:13;;;;;;;0.10;0.10;;;14.60;99.90;;;;;;4969511;28;20185;-79
2021/05/26 11:16:49;;;;;;;0.47;0.10;;;14.50;99.90;;;;;;4967866;28;20196;-79
2021/05/26 11:19:22;;;;;;;0.10;0.10;;;14.60;99.90;;;;;;4965549;28;20266;-79
2021/05/26 11:21:55;;;;;;;0.10;0.10;;;14.70;99.90;;;;;;4969005;28;20193;-79
2021/05/26 11:24:22;;;;;;;0.10;0.10;;;14.80;99.90;;;;;;4963534;28;20673;-78
2021/05/26 11:26:48;;;;;;;0.03;0.03;;;15.00;99.90;;;;;;4967262;28;20184;-79
2021/05/26 11:29:25;;;;;;;0.10;0.10;;;15.00;99.90;;;;;;4969800;28;20208;-78
2021/05/26 11:32:13;;;;;;;0.10;0.10;;;15.00;99.90;;;;;;4982919;28;20642;-78
2021/05/26 11:34:43;;;;;;;0.10;0.10;;;15.00;99.90;;;;;;4986350;28;20215;-79
2021/05/26 11:37:10;;;;;;;0.33;0.20;;;15.00;99.90;;;;;;4971220;28;20268;-79
2021/05/26 11:39:37;;;;;;;0.10;0.10;;;15.00;99.90;;;;;;4967274;28;20597;-78
2021/05/26 11:42:22;;;;;;;0.20;0.20;;;15.10;99.90;;;;;;4972080;28;20189;-79
2021/05/26 11:44:55;;;;;;;0.10;0.10;;;15.20;99.90;;;;;;4968059;28;20204;-78
2021/05/26 11:47:41;;;;;;;0.20;0.20;;;15.40;99.90;;;;;;4978947;28;20193;-79
2021/05/26 11:50:13;;;;;;;0.10;0.10;;;15.40;99.90;;;;;;4969168;28;20211;-80
2021/05/26 11:52:40;;;;;;;0.37;0.20;;;15.20;99.90;;;;;;4980989;28;20189;-80
2021/05/26 11:55:06;;;;;;;0.17;0.17;;;15.30;99.90;;;;;;4973016;28;20180;-79
2021/05/26 11:57:45;;;;;;;0.10;0.10;;;15.20;99.90;;;;;;4971085;28;20199;-80
2021/05/26 12:00:11;;;;;;;0.10;0.10;;;14.90;99.90;;;;;;4968097;28;20193;-80
2021/05/26 12:03:00;;;;;;;0.07;0.07;;;14.80;99.90;;;;;;4969170;28;20262;-79
2021/05/26 12:05:36;;;;;;;0.10;0.10;;;14.80;99.90;;;;;;4967801;28;20201;-79
2021/05/26 12:08:02;;;;;;;0.07;0.07;;;14.80;99.90;;;;;;4973111;28;20803;-79
2021/05/26 12:10:28;;;;;;;0.10;0.10;;;14.90;99.90;;;;;;4968868;28;20297;-78
2021/05/26 12:13:02;;;;;;;0.10;0.10;;;14.80;99.90;;;;;;4970310;28;20200;-80
2021/05/26 12:15:28;;;;;;;0.10;0.10;;;14.80;99.90;;;;;;4966334;28;20656;-78
2021/05/26 12:17:58;;;;;;;0.10;0.10;;;14.90;99.90;;;;;;4966278;28;20649;-80
2021/05/26 12:20:23;;;;;;;0.17;0.17;;;15.10;99.90;;;;;;4962901;28;20725;-80
2021/05/26 12:22:51;;;;;;;0.10;0.10;;;15.30;99.90;;;;;;4968554;28;20285;-80
2021/05/26 12:25:17;;;;;;;0.10;0.10;;;15.30;99.90;;;;;;4978441;28;20296;-80
2021/05/26 12:27:45;;;;;;;0.10;0.10;;;15.20;99.90;;;;;;4971376;28;20757;-79
2021/05/26 12:30:28;;;;;;;0.10;0.10;;;15.10;99.90;;;;;;4967881;28;20224;-80
2021/05/26 12:33:15;;;;;;;0.10;0.10;;;15.00;99.90;;;;;;4968398;28;20191;-79
2021/05/26 12:35:41;;;;;;;0.10;0.10;;;14.80;99.90;;;;;;4968202;28;20223;-79
2021/05/26 12:38:21;;;;;;;0.30;0.30;;;14.80;99.90;;;;;;4970716;28;20207;-79
2021/05/26 12:40:48;;;;;;;0.20;0.20;;;14.60;99.90;;;;;;4969864;28;20216;-80
2021/05/26 12:43:28;;;;;;;0.30;0.30;;;14.50;99.90;;;;;;4967182;28;20197;-79
2021/05/26 12:45:54;;;;;;;0.37;0.37;;;14.40;99.90;;;;;;4987503;28;20185;-80
2021/05/26 12:48:21;;;;;;;0.10;0.10;;;14.30;99.90;;;;;;4969974;28;20228;-80
2021/05/26 12:50:47;;;;;;;0.40;0.40;;;14.20;99.90;;;;;;4967394;28;20588;-80
2021/05/26 12:53:15;;;;;;;0.23;0.23;;;14.20;99.90;;;;;;4969149;28;20195;-78